Terminal Aerodrome Forecast
Issued by NWS Bismarck, ND

Home | Current Version | Previous Version | Graphics & Text | Print | Product List | Glossary On
Versions: 1 2 3 4 5 6 7 8 9 10 11 12 13 14 15 16 17
000
FTUS43 KBIS 271100 RRA
TAFBIS
TAF
KBIS 271148Z 2712/2812 09004KT P6SM SCT300
     FM271600 16005KT P6SM SCT300
     FM272000 22004KT P6SM SCT300
     FM280100 13002KT P6SM SCT250
     FM280600 VRB03KT P6SM SCT015 BKN200=

USA.gov is the U.S. government's official web portal to all federal, state and local government web resources and services.